Time;durP1;ratioP1;P1;durP2;ratioP2;P2;SDS_P1;SDS_P2;PMS_P1;PMS_P2;Temp;Humidity;BMP_temperature;BMP_pressure;BME280_temperature;BME280_humidity;BME280_pressure;Samples;Min_cycle;Max_cycle;Signal;HPM_P1;HPM_P2
2021/06/04 00:00:46;;;;;;;6.82;6.00;;;18.90;99.90;;;;;;5003827;28;20110;-58
2021/06/04 00:03:18;;;;;;;7.20;5.72;;;18.90;99.90;;;;;;5001277;28;20041;-54
2021/06/04 00:05:47;;;;;;;8.88;6.35;;;19.00;99.90;;;;;;4989572;28;20531;-57
2021/06/04 00:08:14;;;;;;;9.15;7.18;;;18.90;99.90;;;;;;4987204;28;20038;-57
2021/06/04 00:10:54;;;;;;;9.05;7.00;;;18.90;99.90;;;;;;4983675;28;20516;-57
2021/06/04 00:13:44;;;;;;;8.20;6.25;;;18.80;99.90;;;;;;5001549;28;20076;-59
2021/06/04 00:16:21;;;;;;;9.65;7.18;;;18.80;99.90;;;;;;4992264;28;20030;-58
2021/06/04 00:18:49;;;;;;;8.50;6.82;;;18.70;99.90;;;;;;4991135;28;20034;-58
2021/06/04 00:21:20;;;;;;;8.52;7.53;;;18.70;99.90;;;;;;4999202;28;20030;-58
2021/06/04 00:23:47;;;;;;;8.75;7.40;;;18.60;99.90;;;;;;4997570;28;20121;-59
2021/06/04 00:26:14;;;;;;;9.45;6.88;;;18.60;99.90;;;;;;4989701;28;20054;-58
2021/06/04 00:28:39;;;;;;;6.43;5.82;;;18.60;99.90;;;;;;4994590;28;20105;-58
2021/06/04 00:31:06;;;;;;;6.88;6.05;;;18.60;99.90;;;;;;4997139;28;20117;-59
2021/06/04 00:33:33;;;;;;;8.18;6.00;;;18.60;99.90;;;;;;4993873;28;20030;-57
2021/06/04 00:35:58;;;;;;;7.53;5.93;;;18.60;99.90;;;;;;4997857;28;20022;-58
2021/06/04 00:38:24;;;;;;;7.70;6.10;;;18.50;99.90;;;;;;4996120;28;20034;-57
2021/06/04 00:40:55;;;;;;;6.85;5.93;;;18.50;99.90;;;;;;4983900;28;20396;-57
2021/06/04 00:43:23;;;;;;;6.93;6.18;;;18.50;99.90;;;;;;4997641;28;20136;-58
2021/06/04 00:45:51;;;;;;;7.85;6.63;;;18.50;99.90;;;;;;5003152;28;20483;-59
2021/06/04 00:48:18;;;;;;;8.63;6.90;;;18.50;99.90;;;;;;5003798;28;20030;-58
2021/06/04 00:50:55;;;;;;;6.47;5.75;;;18.50;99.90;;;;;;4992671;28;20169;-56
2021/06/04 00:53:23;;;;;;;7.18;6.47;;;18.40;99.90;;;;;;5003240;28;20080;-55
2021/06/04 00:55:49;;;;;;;6.47;5.47;;;18.50;99.90;;;;;;5001290;28;20026;-56
2021/06/04 00:58:20;;;;;;;6.97;6.25;;;18.50;99.90;;;;;;4997099;28;20065;-55
2021/06/04 01:00:50;;;;;;;6.60;6.00;;;18.50;99.90;;;;;;4998522;28;20511;-54
2021/06/04 01:03:18;;;;;;;18.92;7.63;;;18.50;99.90;;;;;;4998349;28;20030;-57
2021/06/04 01:05:44;;;;;;;7.93;7.00;;;18.40;99.90;;;;;;4991968;28;20042;-56
2021/06/04 01:08:37;;;;;;;11.52;7.05;;;18.40;99.90;;;;;;4994155;28;20033;-59
2021/06/04 01:11:15;;;;;;;12.02;7.07;;;18.30;99.90;;;;;;4996731;28;20053;-56
2021/06/04 01:14:37;;;;;;;7.78;7.03;;;18.30;99.90;;;;;;5004087;28;20701;-57
2021/06/04 01:17:25;;;;;;;8.32;6.90;;;18.20;99.90;;;;;;4941877;28;20047;-55
2021/06/04 01:20:08;;;;;;;7.35;6.05;;;18.20;99.90;;;;;;4954770;28;20508;-58
2021/06/04 01:23:05;;;;;;;8.93;7.10;;;18.20;99.90;;;;;;4979688;28;20381;-58
2021/06/04 01:25:49;;;;;;;7.88;6.65;;;18.20;99.90;;;;;;4996766;28;20053;-60
2021/06/04 01:28:35;;;;;;;10.98;7.25;;;18.10;99.90;;;;;;4997712;28;20250;-58
2021/06/04 01:31:17;;;;;;;14.05;8.90;;;18.10;99.90;;;;;;4995513;28;20034;-56
2021/06/04 01:33:47;;;;;;;9.02;7.13;;;18.10;99.90;;;;;;4989088;28;20026;-55
2021/06/04 01:36:17;;;;;;;7.95;6.28;;;18.00;99.90;;;;;;4999805;28;20455;-58
2021/06/04 01:38:45;;;;;;;10.93;7.05;;;18.00;99.90;;;;;;5000758;28;20023;-56
2021/06/04 01:41:13;;;;;;;7.60;6.80;;;18.00;99.90;;;;;;5002029;28;20465;-57
2021/06/04 01:43:51;;;;;;;11.07;7.18;;;18.00;99.90;;;;;;4994544;28;20073;-55
2021/06/04 01:46:30;;;;;;;11.77;6.97;;;18.00;99.90;;;;;;4990074;28;20500;-58
2021/06/04 01:49:00;;;;;;;11.73;6.70;;;18.00;99.90;;;;;;5001332;28;20042;-57
2021/06/04 01:51:35;;;;;;;8.50;6.72;;;18.00;99.90;;;;;;5000154;28;20077;-56
2021/06/04 01:54:06;;;;;;;7.00;6.25;;;17.90;99.90;;;;;;4996181;28;20034;-57
2021/06/04 01:56:43;;;;;;;6.72;5.70;;;17.90;99.90;;;;;;5005455;28;20034;-57
2021/06/04 01:59:32;;;;;;;7.43;5.70;;;17.90;99.90;;;;;;4995851;28;20029;-56
2021/06/04 02:01:59;;;;;;;9.30;6.78;;;17.90;99.90;;;;;;4990037;28;20096;-56
2021/06/04 02:04:39;;;;;;;8.45;6.07;;;17.90;99.90;;;;;;4994460;28;20120;-58
2021/06/04 02:07:09;;;;;;;8.45;6.85;;;17.90;99.90;;;;;;4994061;28;20038;-56
2021/06/04 02:09:35;;;;;;;7.70;6.35;;;17.90;99.90;;;;;;4992204;28;20273;-57
2021/06/04 02:12:03;;;;;;;7.35;5.70;;;17.90;99.90;;;;;;5001707;28;20118;-57
2021/06/04 02:14:35;;;;;;;7.07;5.28;;;17.90;99.90;;;;;;5000465;28;20170;-56
2021/06/04 02:17:12;;;;;;;9.05;6.55;;;17.90;99.90;;;;;;4995882;28;20018;-58
2021/06/04 02:19:57;;;;;;;7.40;6.20;;;17.80;99.90;;;;;;4998365;28;20026;-57
2021/06/04 02:22:53;;;;;;;10.02;6.38;;;17.80;99.90;;;;;;4998467;28;20175;-56
2021/06/04 02:25:28;;;;;;;7.72;6.70;;;17.80;99.90;;;;;;5001678;28;20650;-56
2021/06/04 02:28:06;;;;;;;8.85;6.63;;;17.80;99.90;;;;;;5001350;28;20832;-55
2021/06/04 02:30:39;;;;;;;9.02;6.93;;;17.80;99.90;;;;;;4991250;28;20022;-58
2021/06/04 02:33:42;;;;;;;9.70;5.90;;;17.80;99.90;;;;;;4991514;28;20027;-57
2021/06/04 02:36:16;;;;;;;7.85;5.53;;;17.70;99.90;;;;;;4994310;28;20742;-58
2021/06/04 02:38:47;;;;;;;7.18;5.93;;;17.70;99.90;;;;;;5002644;28;20105;-56
2021/06/04 02:41:25;;;;;;;9.70;5.78;;;17.70;99.90;;;;;;4999833;28;20050;-57
2021/06/04 02:43:57;;;;;;;7.47;5.97;;;17.60;99.90;;;;;;4999821;28;20026;-58
2021/06/04 02:46:29;;;;;;;8.25;7.03;;;17.60;99.90;;;;;;4999487;28;20607;-56
2021/06/04 02:48:55;;;;;;;10.95;7.32;;;17.50;99.90;;;;;;4990703;28;20582;-56
2021/06/04 02:51:26;;;;;;;7.68;6.75;;;17.50;99.90;;;;;;4993405;28;20034;-57
2021/06/04 02:53:56;;;;;;;9.50;6.93;;;17.50;99.90;;;;;;4996080;28;20065;-57
2021/06/04 02:56:26;;;;;;;8.82;6.55;;;17.40;99.90;;;;;;5001380;28;20113;-58
2021/06/04 02:59:10;;;;;;;9.95;8.18;;;17.30;99.90;;;;;;5001641;28;20023;-59
2021/06/04 03:01:39;;;;;;;10.35;7.90;;;17.30;99.90;;;;;;4998220;28;20038;-54
2021/06/04 03:04:06;;;;;;;9.93;7.70;;;17.30;99.90;;;;;;5005367;28;20105;-55
2021/06/04 03:06:36;;;;;;;8.75;7.32;;;17.30;99.90;;;;;;4996603;28;20658;-57
2021/06/04 03:09:05;;;;;;;10.43;8.15;;;17.20;99.90;;;;;;4990185;28;20029;-59
2021/06/04 03:11:33;;;;;;;11.23;8.45;;;17.20;99.90;;;;;;5003323;28;20380;-57
2021/06/04 03:14:03;;;;;;;9.50;7.97;;;17.20;99.90;;;;;;4998353;28;20034;-58
2021/06/04 03:16:29;;;;;;;9.20;7.63;;;17.10;99.90;;;;;;4996429;28;20034;-56
2021/06/04 03:18:59;;;;;;;9.32;8.40;;;17.10;99.90;;;;;;5002947;28;20067;-59
2021/06/04 03:21:38;;;;;;;11.23;8.80;;;17.00;99.90;;;;;;5004468;28;20032;-56
2021/06/04 03:24:07;;;;;;;9.27;8.35;;;17.00;99.90;;;;;;5004494;28;20022;-57
2021/06/04 03:26:33;;;;;;;10.90;9.55;;;17.00;99.90;;;;;;4995589;28;20034;-57
2021/06/04 03:29:05;;;;;;;10.82;8.48;;;17.00;99.90;;;;;;4997353;28;20034;-56
2021/06/04 03:31:33;;;;;;;9.60;8.50;;;16.90;99.90;;;;;;4991116;28;20570;-57
2021/06/04 03:34:01;;;;;;;11.10;8.52;;;16.90;99.90;;;;;;4995231;28;20038;-58
2021/06/04 03:36:31;;;;;;;11.43;9.60;;;16.90;99.90;;;;;;4992245;28;20041;-57
2021/06/04 03:38:56;;;;;;;11.25;8.73;;;16.90;99.90;;;;;;4999538;28;20077;-58
2021/06/04 03:41:30;;;;;;;10.48;8.30;;;17.00;99.90;;;;;;4990718;28;20031;-56
2021/06/04 03:43:56;;;;;;;14.48;9.65;;;17.00;99.90;;;;;;4992267;28;20043;-58
2021/06/04 03:46:22;;;;;;;9.90;8.73;;;17.00;99.90;;;;;;4993338;28;20034;-57
2021/06/04 03:48:48;;;;;;;10.50;9.00;;;17.00;99.90;;;;;;5005315;28;20034;-58
2021/06/04 03:51:18;;;;;;;11.02;8.32;;;17.00;99.90;;;;;;4996383;28;20377;-57
2021/06/04 03:53:44;;;;;;;9.60;8.50;;;17.10;99.90;;;;;;5008214;28;20029;-56
2021/06/04 03:56:12;;;;;;;13.52;9.00;;;17.10;99.90;;;;;;4993556;28;20026;-57
2021/06/04 03:58:38;;;;;;;11.57;9.18;;;17.20;99.90;;;;;;4993708;28;20105;-57
2021/06/04 04:01:09;;;;;;;13.48;8.15;;;17.30;99.90;;;;;;5002089;28;20117;-54
2021/06/04 04:03:36;;;;;;;8.57;7.78;;;17.30;99.90;;;;;;4991321;28;20113;-56
2021/06/04 04:06:01;;;;;;;11.57;8.70;;;17.40;99.90;;;;;;4998975;28;20062;-58
2021/06/04 04:08:28;;;;;;;10.80;7.38;;;17.40;99.90;;;;;;4988055;28;20791;-56
2021/06/04 04:10:55;;;;;;;12.13;7.93;;;17.50;99.90;;;;;;5003124;28;20105;-55
2021/06/04 04:13:22;;;;;;;9.10;7.53;;;17.60;99.90;;;;;;4995815;28;20045;-54
2021/06/04 04:15:49;;;;;;;8.43;7.35;;;17.60;99.90;;;;;;4995718;28;20032;-55
2021/06/04 04:18:15;;;;;;;12.80;7.35;;;17.60;99.90;;;;;;4997763;28;20022;-56
2021/06/04 04:20:45;;;;;;;9.70;8.10;;;17.70;99.90;;;;;;4997794;28;20077;-56
2021/06/04 04:23:14;;;;;;;11.88;7.70;;;17.70;99.90;;;;;;4997505;28;20034;-58
2021/06/04 04:25:42;;;;;;;8.38;7.55;;;17.80;99.90;;;;;;4996927;28;20117;-55
2021/06/04 04:28:14;;;;;;;8.73;7.82;;;17.80;99.90;;;;;;4991740;28;20076;-55
2021/06/04 04:30:40;;;;;;;8.98;7.03;;;17.90;99.90;;;;;;4998118;28;20049;-55
2021/06/04 04:33:07;;;;;;;10.23;7.85;;;18.00;99.90;;;;;;4993364;28;20436;-57
2021/06/04 04:35:35;;;;;;;8.20;7.38;;;18.10;99.90;;;;;;4998746;28;20033;-56
2021/06/04 04:38:02;;;;;;;8.75;7.07;;;18.20;99.90;;;;;;4994110;28;20439;-57
2021/06/04 04:40:30;;;;;;;7.78;6.97;;;18.40;99.90;;;;;;4992737;28;20550;-56
2021/06/04 04:42:56;;;;;;;10.43;7.18;;;18.50;99.90;;;;;;4996229;28;20030;-57
2021/06/04 04:45:23;;;;;;;9.43;6.95;;;18.60;99.90;;;;;;5003467;28;20114;-57
2021/06/04 04:47:49;;;;;;;9.70;7.28;;;18.70;99.90;;;;;;4991744;28;20035;-56
2021/06/04 04:50:16;;;;;;;7.78;7.07;;;18.80;99.90;;;;;;4997092;28;20036;-57
2021/06/04 04:52:41;;;;;;;7.63;6.80;;;18.90;99.90;;;;;;4997357;28;20080;-57
2021/06/04 04:55:09;;;;;;;8.65;7.15;;;18.90;99.90;;;;;;5002585;28;20030;-57
2021/06/04 04:57:35;;;;;;;8.93;7.25;;;19.10;99.90;;;;;;4994801;28;20113;-56
2021/06/04 05:00:00;;;;;;;10.77;7.15;;;19.00;99.90;;;;;;4995054;28;20021;-55
2021/06/04 05:02:26;;;;;;;7.95;7.15;;;19.00;99.90;;;;;;5000698;28;20721;-56
2021/06/04 05:04:52;;;;;;;7.55;6.75;;;18.90;99.90;;;;;;4995261;28;20057;-55
2021/06/04 05:07:18;;;;;;;9.98;6.53;;;18.90;99.90;;;;;;5002824;28;20025;-57
2021/06/04 05:09:44;;;;;;;8.48;6.80;;;19.00;99.90;;;;;;4999566;28;20088;-58
2021/06/04 05:12:10;;;;;;;8.77;6.97;;;19.00;99.90;;;;;;4997800;28;20480;-52
2021/06/04 05:14:36;;;;;;;7.53;6.18;;;19.00;99.90;;;;;;4988844;28;20080;-55
2021/06/04 05:17:03;;;;;;;7.38;6.30;;;19.00;99.90;;;;;;4994588;28;20022;-55
2021/06/04 05:19:29;;;;;;;8.15;7.13;;;19.20;99.90;;;;;;5000845;28;20036;-54
2021/06/04 05:21:55;;;;;;;9.07;6.47;;;19.10;99.90;;;;;;4998681;28;20053;-57
2021/06/04 05:24:21;;;;;;;10.00;6.63;;;19.20;99.90;;;;;;4990725;28;20046;-58
2021/06/04 05:26:47;;;;;;;8.02;6.53;;;19.20;99.90;;;;;;4998004;28;20030;-53
2021/06/04 05:29:13;;;;;;;7.80;6.95;;;19.20;99.90;;;;;;5001232;28;20033;-57
2021/06/04 05:31:39;;;;;;;8.75;7.28;;;19.20;99.90;;;;;;4992813;28;20038;-55
2021/06/04 05:34:07;;;;;;;7.13;6.40;;;19.40;99.90;;;;;;5001376;28;20026;-57
2021/06/04 05:36:35;;;;;;;6.38;5.78;;;19.40;99.90;;;;;;5000763;28;20037;-55
2021/06/04 05:39:07;;;;;;;6.63;5.70;;;19.50;99.90;;;;;;4995529;28;20018;-56
2021/06/04 05:41:33;;;;;;;8.82;5.90;;;19.50;99.90;;;;;;4995424;28;20391;-59
2021/06/04 05:43:58;;;;;;;8.60;5.90;;;19.60;99.90;;;;;;4990402;28;20034;-57
2021/06/04 05:46:24;;;;;;;6.07;5.47;;;19.70;99.90;;;;;;4998290;28;20451;-57
2021/06/04 05:48:50;;;;;;;6.35;5.55;;;19.90;99.90;;;;;;5000407;28;20118;-56
2021/06/04 05:51:21;;;;;;;6.25;5.45;;;20.10;99.90;;;;;;5000256;28;20408;-58
2021/06/04 05:53:47;;;;;;;6.15;5.55;;;20.30;99.90;;;;;;4998239;28;20042;-57
2021/06/04 05:56:16;;;;;;;10.07;5.00;;;20.50;99.90;;;;;;5004319;28;20511;-55
2021/06/04 05:58:44;;;;;;;6.72;5.35;;;20.70;99.90;;;;;;4992467;28;20027;-57
2021/06/04 06:01:15;;;;;;;6.40;5.07;;;20.70;99.90;;;;;;5002111;28;20022;-58
2021/06/04 06:03:41;;;;;;;5.78;4.93;;;20.80;99.90;;;;;;5004134;28;20026;-57
2021/06/04 06:06:08;;;;;;;5.95;5.32;;;20.90;99.90;;;;;;5000662;28;20492;-56
2021/06/04 06:08:34;;;;;;;8.40;5.47;;;21.20;99.90;;;;;;4994868;28;20034;-56
2021/06/04 06:11:00;;;;;;;6.38;4.95;;;21.20;99.90;;;;;;4998190;28;20096;-58
2021/06/04 06:13:26;;;;;;;6.82;5.15;;;21.30;99.90;;;;;;4997968;28;20184;-57
2021/06/04 06:15:52;;;;;;;6.05;4.60;;;21.90;99.90;;;;;;5005782;28;20030;-58
2021/06/04 06:18:19;;;;;;;7.10;4.43;;;22.30;99.90;;;;;;5003005;28;20046;-58
2021/06/04 06:20:45;;;;;;;9.02;4.50;;;22.70;99.90;;;;;;5000707;28;20037;-58
2021/06/04 06:23:13;;;;;;;8.15;4.35;;;22.90;99.90;;;;;;5001176;28;20038;-59
2021/06/04 06:25:43;;;;;;;4.93;3.70;;;23.60;99.90;;;;;;5001517;28;20050;-59
2021/06/04 06:28:11;;;;;;;4.25;3.75;;;24.10;99.90;;;;;;5008627;28;20026;-58
2021/06/04 06:30:37;;;;;;;6.38;4.47;;;24.30;99.90;;;;;;4990650;28;20047;-59
2021/06/04 06:33:03;;;;;;;5.88;4.85;;;24.30;99.90;;;;;;4998059;28;20033;-58
2021/06/04 06:35:46;;;;;;;6.43;4.32;;;24.40;99.90;;;;;;4999722;28;20109;-59
2021/06/04 06:38:12;;;;;;;4.35;3.63;;;24.30;99.90;;;;;;4994166;28;20021;-61
2021/06/04 06:40:39;;;;;;;5.28;3.78;;;24.50;99.90;;;;;;4999303;28;20036;-58
2021/06/04 06:43:06;;;;;;;4.85;3.65;;;24.50;99.90;;;;;;5004314;28;20691;-58
2021/06/04 06:45:31;;;;;;;5.40;3.83;;;25.20;99.90;;;;;;5005066;28;20038;-59
2021/06/04 06:47:57;;;;;;;4.07;3.58;;;25.50;99.90;;;;;;5003708;28;20427;-59
2021/06/04 06:50:28;;;;;;;5.47;3.97;;;25.90;99.90;;;;;;4993845;28;20034;-59
2021/06/04 06:52:54;;;;;;;6.65;3.70;;;26.20;99.90;;;;;;5004461;28;20033;-58
2021/06/04 06:55:20;;;;;;;5.57;4.03;;;27.30;99.10;;;;;;5005517;28;20033;-59
2021/06/04 06:57:46;;;;;;;6.30;4.30;;;27.70;97.00;;;;;;5000250;28;20026;-58
2021/06/04 07:00:17;;;;;;;4.40;3.90;;;27.50;96.40;;;;;;4965968;28;20050;-59
2021/06/04 07:02:43;;;;;;;6.80;4.10;;;28.30;96.20;;;;;;4991844;28;20035;-58
2021/06/04 07:05:11;;;;;;;7.35;4.38;;;29.30;93.80;;;;;;4997518;28;20052;-60
2021/06/04 07:07:39;;;;;;;5.45;3.47;;;29.30;92.50;;;;;;4996296;28;20061;-59
2021/06/04 07:10:09;;;;;;;5.75;3.95;;;30.10;91.60;;;;;;4997217;28;20097;-59
2021/06/04 07:12:35;;;;;;;4.97;3.60;;;30.50;90.30;;;;;;4999191;28;20081;-60
2021/06/04 07:15:00;;;;;;;5.05;3.20;;;31.90;85.30;;;;;;5000025;28;20022;-59
2021/06/04 07:17:28;;;;;;;5.20;4.00;;;30.30;85.40;;;;;;4994732;28;20499;-60
2021/06/04 07:19:54;;;;;;;9.00;3.33;;;29.80;87.70;;;;;;4997608;28;20407;-61
2021/06/04 07:22:20;;;;;;;5.35;3.53;;;29.80;90.40;;;;;;4998889;28;20026;-58
2021/06/04 07:24:46;;;;;;;6.57;3.45;;;30.20;90.60;;;;;;5001774;28;20073;-58
2021/06/04 07:27:12;;;;;;;4.13;3.38;;;31.10;87.30;;;;;;4994033;28;20084;-60
2021/06/04 07:29:38;;;;;;;5.55;3.90;;;30.70;85.20;;;;;;4992010;28;20042;-60
2021/06/04 07:32:04;;;;;;;4.55;3.75;;;30.40;87.00;;;;;;4990964;28;20149;-61
2021/06/04 07:34:29;;;;;;;6.00;4.40;;;29.30;87.80;;;;;;5001546;28;20042;-58
2021/06/04 07:36:57;;;;;;;6.13;3.80;;;28.30;90.90;;;;;;4988380;28;20026;-62
2021/06/04 07:39:26;;;;;;;4.30;3.83;;;27.80;92.30;;;;;;4990142;28;20019;-60
2021/06/04 07:41:52;;;;;;;8.20;4.18;;;27.10;93.50;;;;;;4993983;28;20018;-60
2021/06/04 07:44:19;;;;;;;5.75;4.43;;;27.10;94.70;;;;;;4995721;28;20042;-58
2021/06/04 07:46:46;;;;;;;4.57;4.10;;;27.20;94.40;;;;;;5001436;28;20092;-59
2021/06/04 07:49:13;;;;;;;6.57;3.88;;;28.00;95.60;;;;;;4997276;28;20036;-59
2021/06/04 07:51:45;;;;;;;7.07;3.65;;;29.90;92.40;;;;;;4993666;28;20040;-59
2021/06/04 07:54:11;;;;;;;4.90;3.63;;;31.70;85.90;;;;;;4994882;28;20029;-62
2021/06/04 07:56:38;;;;;;;4.72;3.45;;;33.00;79.70;;;;;;4990635;28;20632;-61
2021/06/04 07:59:04;;;;;;;4.63;3.50;;;33.40;75.80;;;;;;4984277;28;20018;-59
2021/06/04 08:01:29;;;;;;;4.57;3.83;;;34.40;73.30;;;;;;4970311;28;20104;-60
2021/06/04 08:03:56;;;;;;;4.90;3.35;;;34.40;70.20;;;;;;4997294;28;20025;-60
2021/06/04 08:06:22;;;;;;;5.97;4.05;;;35.00;67.70;;;;;;4991159;28;20489;-60
2021/06/04 08:08:53;;;;;;;3.95;3.50;;;34.40;66.80;;;;;;4996652;28;20615;-58
2021/06/04 08:11:23;;;;;;;4.05;3.20;;;33.70;68.80;;;;;;4994223;28;20046;-59
2021/06/04 08:13:49;;;;;;;6.53;3.28;;;34.20;70.40;;;;;;4997788;28;20057;-59
2021/06/04 08:16:16;;;;;;;4.60;3.38;;;34.20;67.60;;;;;;4995588;28;20061;-58
2021/06/04 08:18:41;;;;;;;6.60;3.80;;;34.50;66.30;;;;;;4990510;28;20026;-58
2021/06/04 08:21:18;;;;;;;5.70;3.33;;;34.60;64.10;;;;;;4992868;28;20476;-59
2021/06/04 08:23:45;;;;;;;4.07;3.53;;;34.70;65.50;;;;;;4995514;28;20057;-57
2021/06/04 08:26:15;;;;;;;6.13;3.45;;;35.00;65.30;;;;;;5000767;28;20087;-59
2021/06/04 08:28:41;;;;;;;3.83;3.40;;;35.60;61.90;;;;;;4993929;28;20488;-58
2021/06/04 08:31:07;;;;;;;5.55;4.18;;;35.50;61.10;;;;;;4994272;28;20174;-57
2021/06/04 08:33:41;;;;;;;6.78;3.65;;;35.50;58.70;;;;;;4989847;28;20026;-58
2021/06/04 08:36:14;;;;;;;7.15;4.72;;;34.90;62.10;;;;;;4988764;28;20030;-57
2021/06/04 08:38:41;;;;;;;6.30;4.45;;;34.90;59.60;;;;;;4993802;28;20109;-58
2021/06/04 08:41:20;;;;;;;9.65;4.15;;;34.00;60.80;;;;;;4989382;28;20177;-61
2021/06/04 08:44:27;;;;;;;7.15;4.50;;;34.30;61.10;;;;;;4993876;28;20038;-61
2021/06/04 08:47:03;;;;;;;5.95;4.63;;;34.20;61.40;;;;;;4992984;28;20038;-59
2021/06/04 08:49:44;;;;;;;5.97;4.25;;;35.30;59.00;;;;;;4998225;28;20032;-60
2021/06/04 08:52:30;;;;;;;8.98;4.70;;;36.00;58.00;;;;;;4992930;28;20643;-61
2021/06/04 08:55:04;;;;;;;5.32;3.40;;;36.50;56.70;;;;;;4994626;28;20030;-61
2021/06/04 08:57:29;;;;;;;7.63;4.28;;;36.30;56.80;;;;;;4993463;28;20037;-62
2021/06/04 08:59:56;;;;;;;6.80;5.63;;;35.60;58.90;;;;;;4993785;28;20022;-59
2021/06/04 09:02:36;;;;;;;10.13;5.07;;;35.50;56.10;;;;;;4976918;28;20038;-58
2021/06/04 09:05:10;;;;;;;6.78;4.35;;;35.90;56.30;;;;;;4993895;28;20117;-58
2021/06/04 09:07:41;;;;;;;9.23;5.40;;;36.60;55.70;;;;;;4992733;28;20499;-56
2021/06/04 09:10:28;;;;;;;9.90;4.63;;;35.90;55.60;;;;;;5001087;28;20109;-58
2021/06/04 09:13:02;;;;;;;7.88;5.35;;;35.70;54.30;;;;;;4993783;28;20748;-58
2021/06/04 09:15:32;;;;;;;7.30;6.07;;;35.80;56.10;;;;;;4999093;28;20033;-57
2021/06/04 09:18:19;;;;;;;8.73;6.93;;;37.00;52.50;;;;;;4993845;28;20025;-58
2021/06/04 09:20:48;;;;;;;9.80;6.50;;;36.70;52.00;;;;;;4981464;28;20199;-57
2021/06/04 09:23:18;;;;;;;12.00;6.82;;;37.60;51.50;;;;;;5027492;28;20478;-56
2021/06/04 09:25:45;;;;;;;13.73;8.07;;;37.20;50.60;;;;;;4978978;28;20591;-58
2021/06/04 09:28:13;;;;;;;12.40;7.05;;;36.80;52.40;;;;;;5016721;28;20043;-58
2021/06/04 09:30:51;;;;;;;11.10;9.50;;;36.80;52.40;;;;;;5013792;28;20391;-57
2021/06/04 09:33:34;;;;;;;10.82;8.15;;;37.00;50.20;;;;;;5009386;28;20479;-56
2021/06/04 09:36:07;;;;;;;12.75;10.50;;;36.40;51.10;;;;;;5011889;28;20067;-59
2021/06/04 09:38:35;;;;;;;9.57;8.10;;;36.70;50.80;;;;;;5009882;28;20037;-57
2021/06/04 09:41:24;;;;;;;11.48;9.18;;;37.10;50.90;;;;;;5009878;28;20018;-59
2021/06/04 09:44:08;;;;;;;12.85;8.07;;;36.70;50.60;;;;;;5010312;28;20019;-55
2021/06/04 09:47:01;;;;;;;15.05;8.90;;;36.90;51.10;;;;;;5011389;28;20506;-56
2021/06/04 09:49:42;;;;;;;10.90;6.35;;;36.80;50.60;;;;;;5012090;28;20468;-56
2021/06/04 09:52:36;;;;;;;8.37;7.27;;;36.70;52.30;;;;;;5003396;28;20072;-58
2021/06/04 09:55:26;;;;;;;9.60;7.53;;;36.90;50.70;;;;;;4999637;28;20055;-58
2021/06/04 09:58:04;;;;;;;10.63;6.03;;;36.70;51.30;;;;;;5007310;28;20056;-57
2021/06/04 10:00:40;;;;;;;9.10;6.47;;;36.40;50.50;;;;;;5009388;28;20490;-58
2021/06/04 10:03:28;;;;;;;12.77;6.57;;;35.80;50.60;;;;;;4982442;28;20042;-60
2021/06/04 10:06:13;;;;;;;9.07;6.38;;;34.30;53.70;;;;;;5002111;28;20037;-59
2021/06/04 10:08:48;;;;;;;9.55;5.85;;;33.20;55.70;;;;;;5010323;28;20387;-60
2021/06/04 10:11:39;;;;;;;8.60;5.85;;;33.30;54.80;;;;;;5013673;28;20018;-59
2021/06/04 10:14:59;;;;;;;9.07;5.50;;;32.90;56.20;;;;;;5001695;28;20105;-60
2021/06/04 10:17:48;;;;;;;9.25;5.88;;;32.50;57.90;;;;;;5010099;28;20061;-59
2021/06/04 10:20:22;;;;;;;9.45;6.07;;;32.10;57.20;;;;;;5006738;28;20756;-59
2021/06/04 10:22:50;;;;;;;8.75;6.68;;;32.40;59.20;;;;;;5017561;28;20030;-59
2021/06/04 10:25:21;;;;;;;8.52;6.00;;;32.40;56.20;;;;;;5016459;28;20049;-59
2021/06/04 10:27:51;;;;;;;10.88;5.97;;;32.60;56.60;;;;;;5017988;28;20383;-55
2021/06/04 10:30:39;;;;;;;10.52;7.13;;;32.40;56.60;;;;;;5018906;28;20553;-59
2021/06/04 10:33:58;;;;;;;12.27;7.88;;;32.30;57.00;;;;;;5007529;28;20249;-59
2021/06/04 10:36:28;;;;;;;9.23;6.93;;;32.10;58.80;;;;;;4926677;29;20035;-60
2021/06/04 10:38:59;;;;;;;9.82;7.70;;;31.70;57.40;;;;;;4926853;29;20488;-59
2021/06/04 10:41:37;;;;;;;12.52;8.13;;;31.60;59.30;;;;;;4981960;28;20069;-59
2021/06/04 10:44:30;;;;;;;9.07;6.47;;;31.10;61.40;;;;;;5014018;28;20022;-59
2021/06/04 10:47:09;;;;;;;11.88;7.22;;;31.20;63.00;;;;;;5005369;28;20053;-60
2021/06/04 10:49:49;;;;;;;7.50;5.60;;;31.30;60.50;;;;;;5009816;28;20093;-60
2021/06/04 10:52:56;;;;;;;6.18;5.00;;;31.30;59.20;;;;;;5011947;28;20033;-58
2021/06/04 10:55:43;;;;;;;13.07;6.60;;;31.40;58.90;;;;;;5009780;28;20049;-58
2021/06/04 10:58:26;;;;;;;7.65;6.05;;;31.40;59.00;;;;;;5008900;28;20022;-59
2021/06/04 11:01:01;;;;;;;8.75;6.05;;;31.10;58.90;;;;;;5008203;28;20034;-59
2021/06/04 11:03:56;;;;;;;9.85;5.07;;;30.60;60.40;;;;;;5029013;28;20508;-58
2021/06/04 11:06:43;;;;;;;10.70;5.45;;;30.60;61.60;;;;;;5005524;28;20080;-59
2021/06/04 11:09:46;;;;;;;8.27;4.72;;;30.40;64.10;;;;;;5000412;28;20029;-58
2021/06/04 11:12:30;;;;;;;9.70;5.23;;;30.70;62.00;;;;;;5002747;28;20032;-58
2021/06/04 11:15:07;;;;;;;9.18;5.05;;;30.90;61.40;;;;;;5001092;28;20284;-59
2021/06/04 11:17:45;;;;;;;7.70;4.95;;;31.10;59.60;;;;;;5012675;28;20033;-59
2021/06/04 11:20:17;;;;;;;7.25;5.53;;;30.90;61.70;;;;;;4999566;28;20014;-58
2021/06/04 11:23:02;;;;;;;6.88;4.90;;;31.10;59.60;;;;;;5004840;28;20033;-59
2021/06/04 11:25:50;;;;;;;6.57;4.78;;;31.30;61.00;;;;;;5009616;28;20022;-58
2021/06/04 11:28:37;;;;;;;7.13;4.97;;;31.30;61.40;;;;;;5005793;28;20041;-60
2021/06/04 11:31:06;;;;;;;8.45;5.10;;;31.10;60.70;;;;;;5000288;28;20045;-57
2021/06/04 11:33:35;;;;;;;7.00;4.68;;;30.60;61.10;;;;;;5011395;28;20112;-59
2021/06/04 11:36:13;;;;;;;8.90;5.70;;;30.80;63.10;;;;;;5010704;28;20028;-60
2021/06/04 11:38:44;;;;;;;6.63;5.00;;;30.60;60.50;;;;;;5015020;28;20106;-59
2021/06/04 11:41:19;;;;;;;6.55;4.63;;;30.50;61.40;;;;;;5004627;28;20022;-59
2021/06/04 11:43:49;;;;;;;8.68;5.00;;;30.40;61.00;;;;;;5008561;28;20030;-57
2021/06/04 11:46:30;;;;;;;7.50;4.95;;;30.20;64.20;;;;;;5003211;28;20119;-59
2021/06/04 11:49:09;;;;;;;5.55;4.82;;;30.10;63.90;;;;;;5009066;28;20723;-59
2021/06/04 11:51:47;;;;;;;8.10;5.07;;;29.90;62.90;;;;;;5017985;28;20033;-59
2021/06/04 11:54:24;;;;;;;6.43;4.47;;;29.70;63.20;;;;;;5016533;28;20026;-59
2021/06/04 11:56:59;;;;;;;8.95;5.00;;;29.50;64.20;;;;;;5019445;28;20079;-60
2021/06/04 11:59:43;;;;;;;6.45;5.15;;;29.30;63.60;;;;;;5015142;28;20037;-59
2021/06/04 12:02:09;;;;;;;5.53;4.20;;;29.10;63.40;;;;;;4988249;28;20116;-59
2021/06/04 12:04:35;;;;;;;7.28;4.97;;;29.00;63.80;;;;;;5006944;28;20463;-60
2021/06/04 12:07:43;;;;;;;7.78;4.75;;;29.10;65.00;;;;;;5004906;28;20080;-57
2021/06/04 12:10:11;;;;;;;5.28;4.18;;;28.80;66.50;;;;;;5010754;28;20061;-57
2021/06/04 12:12:59;;;;;;;9.38;4.50;;;28.60;69.10;;;;;;5009610;28;20025;-58
2021/06/04 12:15:35;;;;;;;7.45;4.82;;;28.70;71.30;;;;;;5007841;28;20046;-59
2021/06/04 12:18:33;;;;;;;8.15;3.97;;;28.50;69.30;;;;;;5005833;28;20121;-57
2021/06/04 12:20:59;;;;;;;6.53;5.00;;;28.60;71.10;;;;;;5006410;28;20092;-58
2021/06/04 12:23:45;;;;;;;9.20;5.22;;;28.60;71.10;;;;;;5011780;28;20441;-56
2021/06/04 12:26:29;;;;;;;10.18;4.53;;;28.80;68.50;;;;;;5008214;28;20026;-57
2021/06/04 12:28:55;;;;;;;5.68;4.38;;;28.80;70.80;;;;;;5007231;28;20033;-59
2021/06/04 12:31:47;;;;;;;8.13;4.75;;;28.50;72.80;;;;;;5002225;28;20116;-55
2021/06/04 12:34:32;;;;;;;11.02;4.78;;;28.30;70.50;;;;;;5004582;28;20037;-58
2021/06/04 12:37:24;;;;;;;10.23;4.60;;;28.20;72.70;;;;;;5003155;28;20033;-58
2021/06/04 12:39:52;;;;;;;4.55;3.75;;;28.20;74.70;;;;;;5004303;28;20054;-57
2021/06/04 12:42:27;;;;;;;5.60;4.15;;;28.50;73.60;;;;;;5001384;28;20023;-58
2021/06/04 12:45:24;;;;;;;10.45;5.30;;;28.60;73.20;;;;;;5007197;28;20516;-58
2021/06/04 12:48:12;;;;;;;9.15;4.72;;;28.20;72.10;;;;;;5005209;28;20034;-61
2021/06/04 12:50:57;;;;;;;5.43;4.50;;;28.30;74.30;;;;;;5006279;28;20117;-58
2021/06/04 12:53:25;;;;;;;7.65;4.78;;;28.30;74.40;;;;;;5000797;28;20088;-57
2021/06/04 12:55:57;;;;;;;9.60;4.43;;;28.40;74.80;;;;;;5009542;28;20030;-60
2021/06/04 12:58:30;;;;;;;10.52;4.10;;;28.50;76.10;;;;;;5012337;28;20021;-59
2021/06/04 13:01:15;;;;;;;6.93;4.50;;;28.30;74.90;;;;;;5007160;28;20018;-56
2021/06/04 13:03:42;;;;;;;8.02;4.53;;;28.30;74.10;;;;;;4975842;28;20054;-58
2021/06/04 13:06:15;;;;;;;4.20;3.50;;;28.40;74.90;;;;;;4986865;28;20556;-59
2021/06/04 13:08:46;;;;;;;5.78;3.97;;;28.40;74.40;;;;;;4989894;28;20030;-60
2021/06/04 13:11:14;;;;;;;6.18;4.10;;;28.30;76.00;;;;;;4985528;28;20125;-60
2021/06/04 13:13:43;;;;;;;9.23;4.35;;;28.20;77.40;;;;;;4990235;28;20031;-58
2021/06/04 13:16:24;;;;;;;6.97;4.82;;;28.50;76.70;;;;;;4990605;28;20022;-60